sensor_id;sensor_type;location;lat;lon;timestamp;temperature;humidity
14331;DHT22;7249;49.376;11.080;2024-01-27T00:01:36;4.20;99.90
14331;DHT22;7249;49.376;11.080;2024-01-27T00:04:02;4.20;99.90
14331;DHT22;7249;49.376;11.080;2024-01-27T00:06:27;4.10;99.90
14331;DHT22;7249;49.376;11.080;2024-01-27T00:08:53;4.10;99.90
14331;DHT22;7249;49.376;11.080;2024-01-27T00:11:19;4.10;99.90
14331;DHT22;7249;49.376;11.080;2024-01-27T00:13:45;4.10;99.90
14331;DHT22;7249;49.376;11.080;2024-01-27T00:16:11;4.10;99.90
14331;DHT22;7249;49.376;11.080;2024-01-27T00:18:37;4.10;99.90
14331;DHT22;7249;49.376;11.080;2024-01-27T00:21:04;4.00;99.90
14331;DHT22;7249;49.376;11.080;2024-01-27T00:23:30;4.00;99.90
14331;DHT22;7249;49.376;11.080;2024-01-27T00:25:56;3.90;99.90
14331;DHT22;7249;49.376;11.080;2024-01-27T00:28:22;3.80;99.90
14331;DHT22;7249;49.376;11.080;2024-01-27T00:30:47;3.70;99.90
14331;DHT22;7249;49.376;11.080;2024-01-27T00:33:13;3.60;99.90
14331;DHT22;7249;49.376;11.080;2024-01-27T00:35:39;3.50;99.90
14331;DHT22;7249;49.376;11.080;2024-01-27T00:38:04;3.50;99.90
14331;DHT22;7249;49.376;11.080;2024-01-27T00:40:30;3.50;99.90
14331;DHT22;7249;49.376;11.080;2024-01-27T00:42:56;3.50;99.90
14331;DHT22;7249;49.376;11.080;2024-01-27T00:45:21;3.40;99.90
14331;DHT22;7249;49.376;11.080;2024-01-27T00:47:51;3.40;99.90
14331;DHT22;7249;49.376;11.080;2024-01-27T00:50:17;3.40;99.90
14331;DHT22;7249;49.376;11.080;2024-01-27T00:52:43;3.40;99.90
14331;DHT22;7249;49.376;11.080;2024-01-27T00:55:08;3.40;99.90
14331;DHT22;7249;49.376;11.080;2024-01-27T00:57:37;3.40;99.90
14331;DHT22;7249;49.376;11.080;2024-01-27T01:00:09;3.40;99.90
14331;DHT22;7249;49.376;11.080;2024-01-27T01:02:36;3.40;99.90
14331;DHT22;7249;49.376;11.080;2024-01-27T01:05:02;3.40;99.90
14331;DHT22;7249;49.376;11.080;2024-01-27T01:07:32;3.30;99.90
14331;DHT22;7249;49.376;11.080;2024-01-27T01:09:58;3.30;99.90
14331;DHT22;7249;49.376;11.080;2024-01-27T01:12:24;3.30;99.90
14331;DHT22;7249;49.376;11.080;2024-01-27T01:14:53;3.30;99.90
14331;DHT22;7249;49.376;11.080;2024-01-27T01:17:18;3.30;99.90
14331;DHT22;7249;49.376;11.080;2024-01-27T01:19:44;3.20;99.90
14331;DHT22;7249;49.376;11.080;2024-01-27T01:22:10;3.10;99.90
14331;DHT22;7249;49.376;11.080;2024-01-27T01:24:36;3.00;99.90
14331;DHT22;7249;49.376;11.080;2024-01-27T01:27:01;3.00;99.90
14331;DHT22;7249;49.376;11.080;2024-01-27T01:29:27;3.00;99.90
14331;DHT22;7249;49.376;11.080;2024-01-27T01:31:53;2.90;99.90
14331;DHT22;7249;49.376;11.080;2024-01-27T01:34:18;2.80;99.90
14331;DHT22;7249;49.376;11.080;2024-01-27T01:36:44;2.80;99.90
14331;DHT22;7249;49.376;11.080;2024-01-27T01:39:11;2.70;99.90
14331;DHT22;7249;49.376;11.080;2024-01-27T01:41:38;2.60;99.90
14331;DHT22;7249;49.376;11.080;2024-01-27T01:44:04;2.60;99.90
14331;DHT22;7249;49.376;11.080;2024-01-27T01:46:30;2.60;99.90
14331;DHT22;7249;49.376;11.080;2024-01-27T01:48:56;2.50;99.90
14331;DHT22;7249;49.376;11.080;2024-01-27T01:51:22;2.50;99.90
14331;DHT22;7249;49.376;11.080;2024-01-27T01:53:48;2.40;99.90
14331;DHT22;7249;49.376;11.080;2024-01-27T01:56:15;2.40;99.90
14331;DHT22;7249;49.376;11.080;2024-01-27T01:58:41;2.40;99.90
14331;DHT22;7249;49.376;11.080;2024-01-27T02:01:07;2.40;99.90
14331;DHT22;7249;49.376;11.080;2024-01-27T02:03:33;2.40;99.90
14331;DHT22;7249;49.376;11.080;2024-01-27T02:05:58;2.40;99.90
14331;DHT22;7249;49.376;11.080;2024-01-27T02:08:24;2.40;99.90
14331;DHT22;7249;49.376;11.080;2024-01-27T02:10:50;2.40;99.90
14331;DHT22;7249;49.376;11.080;2024-01-27T02:13:20;2.40;99.90
14331;DHT22;7249;49.376;11.080;2024-01-27T02:15:46;2.40;99.90
14331;DHT22;7249;49.376;11.080;2024-01-27T02:18:12;2.30;99.90
14331;DHT22;7249;49.376;11.080;2024-01-27T02:20:38;2.30;99.90
14331;DHT22;7249;49.376;11.080;2024-01-27T02:23:04;2.40;99.90
14331;DHT22;7249;49.376;11.080;2024-01-27T02:25:31;2.40;99.90
14331;DHT22;7249;49.376;11.080;2024-01-27T02:27:57;2.40;99.90
14331;DHT22;7249;49.376;11.080;2024-01-27T02:30:22;2.30;99.90
14331;DHT22;7249;49.376;11.080;2024-01-27T02:32:48;2.30;99.90
14331;DHT22;7249;49.376;11.080;2024-01-27T02:35:14;2.30;99.90
14331;DHT22;7249;49.376;11.080;2024-01-27T02:37:43;2.20;99.90
14331;DHT22;7249;49.376;11.080;2024-01-27T02:40:09;2.20;99.90
14331;DHT22;7249;49.376;11.080;2024-01-27T02:42:36;2.30;99.90
14331;DHT22;7249;49.376;11.080;2024-01-27T02:45:02;2.30;99.90
14331;DHT22;7249;49.376;11.080;2024-01-27T02:47:28;2.20;99.90
14331;DHT22;7249;49.376;11.080;2024-01-27T02:49:53;2.20;99.90
14331;DHT22;7249;49.376;11.080;2024-01-27T02:52:19;2.30;99.90
14331;DHT22;7249;49.376;11.080;2024-01-27T02:54:45;2.30;99.90
14331;DHT22;7249;49.376;11.080;2024-01-27T02:57:11;2.40;99.90
14331;DHT22;7249;49.376;11.080;2024-01-27T02:59:36;2.40;99.90
14331;DHT22;7249;49.376;11.080;2024-01-27T03:02:04;2.30;99.90
14331;DHT22;7249;49.376;11.080;2024-01-27T03:04:30;2.30;99.90
14331;DHT22;7249;49.376;11.080;2024-01-27T03:06:56;2.30;99.90
14331;DHT22;7249;49.376;11.080;2024-01-27T03:09:22;2.30;99.90
14331;DHT22;7249;49.376;11.080;2024-01-27T03:11:47;2.30;99.90
14331;DHT22;7249;49.376;11.080;2024-01-27T03:14:13;2.30;99.90
14331;DHT22;7249;49.376;11.080;2024-01-27T03:16:39;2.30;99.90
14331;DHT22;7249;49.376;11.080;2024-01-27T03:19:04;2.20;99.90
14331;DHT22;7249;49.376;11.080;2024-01-27T03:21:30;2.10;99.90
14331;DHT22;7249;49.376;11.080;2024-01-27T03:23:55;2.10;99.90
14331;DHT22;7249;49.376;11.080;2024-01-27T03:26:21;2.00;99.90
14331;DHT22;7249;49.376;11.080;2024-01-27T03:28:47;2.00;99.90
14331;DHT22;7249;49.376;11.080;2024-01-27T03:31:13;2.00;99.90
14331;DHT22;7249;49.376;11.080;2024-01-27T03:33:38;1.90;99.90
14331;DHT22;7249;49.376;11.080;2024-01-27T03:36:10;1.90;99.90
14331;DHT22;7249;49.376;11.080;2024-01-27T03:38:37;1.90;99.90
14331;DHT22;7249;49.376;11.080;2024-01-27T03:41:03;1.90;99.90
14331;DHT22;7249;49.376;11.080;2024-01-27T03:43:28;1.90;99.90
14331;DHT22;7249;49.376;11.080;2024-01-27T03:45:56;1.80;99.90
14331;DHT22;7249;49.376;11.080;2024-01-27T03:48:21;1.70;99.90
14331;DHT22;7249;49.376;11.080;2024-01-27T03:50:47;1.70;99.90
14331;DHT22;7249;49.376;11.080;2024-01-27T03:53:13;1.60;99.90
14331;DHT22;7249;49.376;11.080;2024-01-27T03:55:39;1.50;99.90
14331;DHT22;7249;49.376;11.080;2024-01-27T03:58:04;1.50;99.90
14331;DHT22;7249;49.376;11.080;2024-01-27T04:00:31;1.40;99.90
14331;DHT22;7249;49.376;11.080;2024-01-27T04:03:02;1.30;99.90
14331;DHT22;7249;49.376;11.080;2024-01-27T04:05:30;1.20;99.90
14331;DHT22;7249;49.376;11.080;2024-01-27T04:07:56;1.10;99.90
14331;DHT22;7249;49.376;11.080;2024-01-27T04:10:22;1.10;99.90
14331;DHT22;7249;49.376;11.080;2024-01-27T04:12:49;1.00;99.90
14331;DHT22;7249;49.376;11.080;2024-01-27T04:15:15;1.00;99.90
14331;DHT22;7249;49.376;11.080;2024-01-27T04:17:41;1.00;99.90
14331;DHT22;7249;49.376;11.080;2024-01-27T04:20:07;0.90;99.90
14331;DHT22;7249;49.376;11.080;2024-01-27T04:22:34;0.90;99.90
14331;DHT22;7249;49.376;11.080;2024-01-27T04:24:59;0.80;99.90
14331;DHT22;7249;49.376;11.080;2024-01-27T04:27:27;0.80;99.90
14331;DHT22;7249;49.376;11.080;2024-01-27T04:29:53;0.70;99.90
14331;DHT22;7249;49.376;11.080;2024-01-27T04:32:18;0.70;99.90
14331;DHT22;7249;49.376;11.080;2024-01-27T04:34:44;0.60;99.90
14331;DHT22;7249;49.376;11.080;2024-01-27T04:37:10;0.60;99.90
14331;DHT22;7249;49.376;11.080;2024-01-27T04:39:35;0.50;99.90
14331;DHT22;7249;49.376;11.080;2024-01-27T04:42:01;0.50;99.90
14331;DHT22;7249;49.376;11.080;2024-01-27T04:44:27;0.40;99.90
14331;DHT22;7249;49.376;11.080;2024-01-27T04:46:52;0.40;99.90
14331;DHT22;7249;49.376;11.080;2024-01-27T04:49:18;0.40;99.90
14331;DHT22;7249;49.376;11.080;2024-01-27T04:51:44;0.40;99.90
14331;DHT22;7249;49.376;11.080;2024-01-27T04:54:10;0.40;99.90
14331;DHT22;7249;49.376;11.080;2024-01-27T04:56:35;0.30;99.90
14331;DHT22;7249;49.376;11.080;2024-01-27T04:59:02;0.30;99.90
14331;DHT22;7249;49.376;11.080;2024-01-27T05:01:28;0.30;99.90
14331;DHT22;7249;49.376;11.080;2024-01-27T05:03:54;0.30;99.90
14331;DHT22;7249;49.376;11.080;2024-01-27T05:06:19;0.30;99.90
14331;DHT22;7249;49.376;11.080;2024-01-27T05:08:45;0.30;99.90
14331;DHT22;7249;49.376;11.080;2024-01-27T05:11:11;0.30;99.90
14331;DHT22;7249;49.376;11.080;2024-01-27T05:13:36;0.30;99.90
14331;DHT22;7249;49.376;11.080;2024-01-27T05:16:05;0.20;99.90
14331;DHT22;7249;49.376;11.080;2024-01-27T05:18:31;0.20;99.90
14331;DHT22;7249;49.376;11.080;2024-01-27T05:20:57;0.10;99.90
14331;DHT22;7249;49.376;11.080;2024-01-27T05:23:22;0.10;99.90
14331;DHT22;7249;49.376;11.080;2024-01-27T05:25:49;0.00;99.90
14331;DHT22;7249;49.376;11.080;2024-01-27T05:28:14;0.00;99.90
14331;DHT22;7249;49.376;11.080;2024-01-27T05:30:40;0.00;99.90
14331;DHT22;7249;49.376;11.080;2024-01-27T05:33:06;-0.10;99.90
14331;DHT22;7249;49.376;11.080;2024-01-27T05:35:31;-0.10;99.90
14331;DHT22;7249;49.376;11.080;2024-01-27T05:37:57;0.00;99.90
14331;DHT22;7249;49.376;11.080;2024-01-27T05:40:23;-0.10;99.90
14331;DHT22;7249;49.376;11.080;2024-01-27T05:42:48;-0.10;99.90
14331;DHT22;7249;49.376;11.080;2024-01-27T05:45:15;-0.10;99.90
14331;DHT22;7249;49.376;11.080;2024-01-27T05:47:40;-0.10;99.90
14331;DHT22;7249;49.376;11.080;2024-01-27T05:50:07;-0.10;99.90
14331;DHT22;7249;49.376;11.080;2024-01-27T05:52:34;-0.10;99.90
14331;DHT22;7249;49.376;11.080;2024-01-27T05:55:01;0.00;99.90
14331;DHT22;7249;49.376;11.080;2024-01-27T05:57:26;0.00;99.90
14331;DHT22;7249;49.376;11.080;2024-01-27T05:59:52;0.00;99.90
14331;DHT22;7249;49.376;11.080;2024-01-27T06:02:18;-0.10;99.90
14331;DHT22;7249;49.376;11.080;2024-01-27T06:04:43;0.00;99.90
14331;DHT22;7249;49.376;11.080;2024-01-27T06:07:09;0.00;99.90
14331;DHT22;7249;49.376;11.080;2024-01-27T06:09:37;-0.10;99.90
14331;DHT22;7249;49.376;11.080;2024-01-27T06:12:03;0.00;99.90
14331;DHT22;7249;49.376;11.080;2024-01-27T06:14:29;0.00;99.90
14331;DHT22;7249;49.376;11.080;2024-01-27T06:16:54;0.00;99.90
14331;DHT22;7249;49.376;11.080;2024-01-27T06:19:20;0.00;99.90
14331;DHT22;7249;49.376;11.080;2024-01-27T06:21:45;-0.10;99.90
14331;DHT22;7249;49.376;11.080;2024-01-27T06:24:11;-0.20;99.90
14331;DHT22;7249;49.376;11.080;2024-01-27T06:26:37;-0.20;99.90
14331;DHT22;7249;49.376;11.080;2024-01-27T06:29:03;-0.20;99.90
14331;DHT22;7249;49.376;11.080;2024-01-27T06:31:29;-0.30;99.90
14331;DHT22;7249;49.376;11.080;2024-01-27T06:33:55;-0.30;99.90
14331;DHT22;7249;49.376;11.080;2024-01-27T06:36:21;-0.30;99.90
14331;DHT22;7249;49.376;11.080;2024-01-27T06:38:50;-0.30;99.90
14331;DHT22;7249;49.376;11.080;2024-01-27T06:41:16;-0.40;99.90
14331;DHT22;7249;49.376;11.080;2024-01-27T06:43:42;-0.40;99.90
14331;DHT22;7249;49.376;11.080;2024-01-27T06:46:08;-0.30;99.90
14331;DHT22;7249;49.376;11.080;2024-01-27T06:48:33;-0.30;99.90
14331;DHT22;7249;49.376;11.080;2024-01-27T06:50:59;-0.30;99.90
14331;DHT22;7249;49.376;11.080;2024-01-27T06:53:25;-0.30;99.90
14331;DHT22;7249;49.376;11.080;2024-01-27T06:55:50;-0.30;99.90
14331;DHT22;7249;49.376;11.080;2024-01-27T06:58:16;-0.30;99.90
14331;DHT22;7249;49.376;11.080;2024-01-27T07:00:42;-0.30;99.90
14331;DHT22;7249;49.376;11.080;2024-01-27T07:03:07;-0.30;99.90
14331;DHT22;7249;49.376;11.080;2024-01-27T07:05:34;-0.30;99.90
14331;DHT22;7249;49.376;11.080;2024-01-27T07:08:06;-0.30;99.90
14331;DHT22;7249;49.376;11.080;2024-01-27T07:10:31;-0.40;99.90
14331;DHT22;7249;49.376;11.080;2024-01-27T07:12:57;-0.30;99.90
14331;DHT22;7249;49.376;11.080;2024-01-27T07:15:23;-0.40;99.90
14331;DHT22;7249;49.376;11.080;2024-01-27T07:17:49;-0.40;99.90
14331;DHT22;7249;49.376;11.080;2024-01-27T07:20:15;-0.40;99.90
14331;DHT22;7249;49.376;11.080;2024-01-27T07:22:41;-0.30;99.90
14331;DHT22;7249;49.376;11.080;2024-01-27T07:25:07;-0.20;99.90
14331;DHT22;7249;49.376;11.080;2024-01-27T07:27:35;-0.20;99.90
14331;DHT22;7249;49.376;11.080;2024-01-27T07:30:02;-0.20;99.90
14331;DHT22;7249;49.376;11.080;2024-01-27T07:32:27;-0.20;99.90
14331;DHT22;7249;49.376;11.080;2024-01-27T07:34:53;-0.10;99.90
14331;DHT22;7249;49.376;11.080;2024-01-27T07:37:19;-0.10;99.90
14331;DHT22;7249;49.376;11.080;2024-01-27T07:39:46;-0.10;99.90
14331;DHT22;7249;49.376;11.080;2024-01-27T07:42:14;-0.10;99.90
14331;DHT22;7249;49.376;11.080;2024-01-27T07:44:41;0.00;99.90
14331;DHT22;7249;49.376;11.080;2024-01-27T07:47:07;0.00;99.90
14331;DHT22;7249;49.376;11.080;2024-01-27T07:49:34;0.10;99.90
14331;DHT22;7249;49.376;11.080;2024-01-27T07:52:00;0.10;99.90
14331;DHT22;7249;49.376;11.080;2024-01-27T07:54:26;0.10;99.90
14331;DHT22;7249;49.376;11.080;2024-01-27T07:56:51;0.20;99.90
14331;DHT22;7249;49.376;11.080;2024-01-27T07:59:17;0.20;99.90
14331;DHT22;7249;49.376;11.080;2024-01-27T08:01:44;0.30;99.90
14331;DHT22;7249;49.376;11.080;2024-01-27T08:04:10;0.30;99.90
14331;DHT22;7249;49.376;11.080;2024-01-27T08:06:47;0.40;99.90
14331;DHT22;7249;49.376;11.080;2024-01-27T08:09:13;0.40;99.90
14331;DHT22;7249;49.376;11.080;2024-01-27T08:11:39;0.50;99.90
14331;DHT22;7249;49.376;11.080;2024-01-27T08:14:04;0.50;99.90
14331;DHT22;7249;49.376;11.080;2024-01-27T08:16:30;0.60;99.90
14331;DHT22;7249;49.376;11.080;2024-01-27T08:18:56;0.60;99.90
14331;DHT22;7249;49.376;11.080;2024-01-27T08:21:21;0.60;99.90
14331;DHT22;7249;49.376;11.080;2024-01-27T08:23:48;0.70;99.90
14331;DHT22;7249;49.376;11.080;2024-01-27T08:26:14;0.80;99.90
14331;DHT22;7249;49.376;11.080;2024-01-27T08:28:40;0.80;99.90
14331;DHT22;7249;49.376;11.080;2024-01-27T08:31:06;0.90;99.90
14331;DHT22;7249;49.376;11.080;2024-01-27T08:33:32;0.90;99.90
14331;DHT22;7249;49.376;11.080;2024-01-27T08:35:57;0.90;99.90
14331;DHT22;7249;49.376;11.080;2024-01-27T08:38:23;1.00;99.90
14331;DHT22;7249;49.376;11.080;2024-01-27T08:40:49;1.10;99.90
14331;DHT22;7249;49.376;11.080;2024-01-27T08:43:14;1.10;99.90
14331;DHT22;7249;49.376;11.080;2024-01-27T08:45:40;1.20;99.90
14331;DHT22;7249;49.376;11.080;2024-01-27T08:48:07;1.20;99.90
14331;DHT22;7249;49.376;11.080;2024-01-27T08:50:33;1.30;99.90
14331;DHT22;7249;49.376;11.080;2024-01-27T08:52:58;1.40;99.90
14331;DHT22;7249;49.376;11.080;2024-01-27T08:55:24;1.50;99.90
14331;DHT22;7249;49.376;11.080;2024-01-27T08:57:50;1.50;99.90
14331;DHT22;7249;49.376;11.080;2024-01-27T09:00:16;1.60;99.90
14331;DHT22;7249;49.376;11.080;2024-01-27T09:02:43;1.70;99.90
14331;DHT22;7249;49.376;11.080;2024-01-27T09:05:08;1.90;99.90
14331;DHT22;7249;49.376;11.080;2024-01-27T09:07:34;2.00;99.90
14331;DHT22;7249;49.376;11.080;2024-01-27T09:10:00;2.10;99.90
14331;DHT22;7249;49.376;11.080;2024-01-27T09:12:26;2.20;99.90
14331;DHT22;7249;49.376;11.080;2024-01-27T09:14:52;2.30;99.90
14331;DHT22;7249;49.376;11.080;2024-01-27T09:17:22;2.50;99.90
14331;DHT22;7249;49.376;11.080;2024-01-27T09:19:48;2.60;99.90
14331;DHT22;7249;49.376;11.080;2024-01-27T09:22:13;2.80;99.90
14331;DHT22;7249;49.376;11.080;2024-01-27T09:24:40;3.00;99.90
14331;DHT22;7249;49.376;11.080;2024-01-27T09:27:05;3.20;99.90
14331;DHT22;7249;49.376;11.080;2024-01-27T09:29:31;3.40;99.90
14331;DHT22;7249;49.376;11.080;2024-01-27T09:31:57;3.60;99.90
14331;DHT22;7249;49.376;11.080;2024-01-27T09:34:23;3.80;99.90
14331;DHT22;7249;49.376;11.080;2024-01-27T09:36:48;4.00;99.90
14331;DHT22;7249;49.376;11.080;2024-01-27T09:39:14;4.10;99.90
14331;DHT22;7249;49.376;11.080;2024-01-27T09:41:40;4.30;99.90
14331;DHT22;7249;49.376;11.080;2024-01-27T09:44:06;4.50;99.90
14331;DHT22;7249;49.376;11.080;2024-01-27T09:46:32;4.70;99.90
14331;DHT22;7249;49.376;11.080;2024-01-27T09:48:58;4.80;99.90
14331;DHT22;7249;49.376;11.080;2024-01-27T09:51:25;4.90;99.90
14331;DHT22;7249;49.376;11.080;2024-01-27T09:53:51;5.00;99.90
14331;DHT22;7249;49.376;11.080;2024-01-27T09:56:17;5.20;99.90
14331;DHT22;7249;49.376;11.080;2024-01-27T09:58:45;5.50;99.90
14331;DHT22;7249;49.376;11.080;2024-01-27T10:01:11;5.70;99.90
14331;DHT22;7249;49.376;11.080;2024-01-27T10:03:40;5.90;99.90
14331;DHT22;7249;49.376;11.080;2024-01-27T10:06:08;6.10;99.90
14331;DHT22;7249;49.376;11.080;2024-01-27T10:08:34;6.30;99.90
14331;DHT22;7249;49.376;11.080;2024-01-27T10:11:07;6.50;99.90
14331;DHT22;7249;49.376;11.080;2024-01-27T10:13:34;6.60;99.90
14331;DHT22;7249;49.376;11.080;2024-01-27T10:16:07;6.80;99.90
14331;DHT22;7249;49.376;11.080;2024-01-27T10:18:37;6.90;99.90
14331;DHT22;7249;49.376;11.080;2024-01-27T10:21:13;7.10;99.90
14331;DHT22;7249;49.376;11.080;2024-01-27T10:23:39;7.30;99.90
14331;DHT22;7249;49.376;11.080;2024-01-27T10:26:08;7.30;99.90
14331;DHT22;7249;49.376;11.080;2024-01-27T10:28:33;7.40;99.90
14331;DHT22;7249;49.376;11.080;2024-01-27T10:31:12;7.50;99.90
14331;DHT22;7249;49.376;11.080;2024-01-27T10:33:38;7.60;99.90
14331;DHT22;7249;49.376;11.080;2024-01-27T10:36:04;7.60;99.90
14331;DHT22;7249;49.376;11.080;2024-01-27T10:38:37;7.60;99.90
14331;DHT22;7249;49.376;11.080;2024-01-27T10:41:09;7.80;99.90
14331;DHT22;7249;49.376;11.080;2024-01-27T10:43:38;8.00;99.90
14331;DHT22;7249;49.376;11.080;2024-01-27T10:46:08;8.00;99.90
14331;DHT22;7249;49.376;11.080;2024-01-27T10:48:35;8.20;99.90
14331;DHT22;7249;49.376;11.080;2024-01-27T10:51:08;8.40;99.90
14331;DHT22;7249;49.376;11.080;2024-01-27T10:53:36;8.50;99.90
14331;DHT22;7249;49.376;11.080;2024-01-27T10:56:04;8.60;99.90
14331;DHT22;7249;49.376;11.080;2024-01-27T10:58:35;8.70;99.90
14331;DHT22;7249;49.376;11.080;2024-01-27T11:01:11;8.70;99.90
14331;DHT22;7249;49.376;11.080;2024-01-27T11:03:40;8.70;99.90
14331;DHT22;7249;49.376;11.080;2024-01-27T11:06:07;8.60;99.90
14331;DHT22;7249;49.376;11.080;2024-01-27T11:08:34;8.70;99.90
14331;DHT22;7249;49.376;11.080;2024-01-27T11:11:03;8.90;99.90
14331;DHT22;7249;49.376;11.080;2024-01-27T11:13:30;9.00;99.90
14331;DHT22;7249;49.376;11.080;2024-01-27T11:15:56;9.00;99.90
14331;DHT22;7249;49.376;11.080;2024-01-27T11:18:24;9.10;99.90
14331;DHT22;7249;49.376;11.080;2024-01-27T11:20:54;9.20;99.90
14331;DHT22;7249;49.376;11.080;2024-01-27T11:23:20;9.10;99.90
14331;DHT22;7249;49.376;11.080;2024-01-27T11:25:46;9.00;99.90
14331;DHT22;7249;49.376;11.080;2024-01-27T11:28:16;9.00;99.90
14331;DHT22;7249;49.376;11.080;2024-01-27T11:30:46;9.00;99.90
14331;DHT22;7249;49.376;11.080;2024-01-27T11:33:12;9.10;99.90
14331;DHT22;7249;49.376;11.080;2024-01-27T11:35:37;9.10;99.90
14331;DHT22;7249;49.376;11.080;2024-01-27T11:38:03;9.10;99.90
14331;DHT22;7249;49.376;11.080;2024-01-27T11:40:29;9.00;99.90
14331;DHT22;7249;49.376;11.080;2024-01-27T11:42:55;9.10;99.90
14331;DHT22;7249;49.376;11.080;2024-01-27T11:45:22;9.10;99.90
14331;DHT22;7249;49.376;11.080;2024-01-27T11:47:48;9.10;99.90
14331;DHT22;7249;49.376;11.080;2024-01-27T11:50:14;9.30;99.90
14331;DHT22;7249;49.376;11.080;2024-01-27T11:52:41;9.20;99.90
14331;DHT22;7249;49.376;11.080;2024-01-27T11:55:08;9.20;99.90
14331;DHT22;7249;49.376;11.080;2024-01-27T11:57:34;9.40;99.90
14331;DHT22;7249;49.376;11.080;2024-01-27T11:59:59;9.70;99.90
14331;DHT22;7249;49.376;11.080;2024-01-27T12:02:25;9.70;99.90
14331;DHT22;7249;49.376;11.080;2024-01-27T12:04:51;9.80;99.90
14331;DHT22;7249;49.376;11.080;2024-01-27T12:07:17;9.80;99.90
14331;DHT22;7249;49.376;11.080;2024-01-27T12:09:49;9.80;99.90
14331;DHT22;7249;49.376;11.080;2024-01-27T12:12:15;10.00;99.90
14331;DHT22;7249;49.376;11.080;2024-01-27T12:14:51;9.90;99.90
14331;DHT22;7249;49.376;11.080;2024-01-27T12:17:18;10.00;99.90
14331;DHT22;7249;49.376;11.080;2024-01-27T12:19:51;10.10;99.90
14331;DHT22;7249;49.376;11.080;2024-01-27T12:22:26;10.20;99.90
14331;DHT22;7249;49.376;11.080;2024-01-27T12:24:55;10.20;99.90
14331;DHT22;7249;49.376;11.080;2024-01-27T12:27:24;10.10;99.90
14331;DHT22;7249;49.376;11.080;2024-01-27T12:29:50;10.20;99.90
14331;DHT22;7249;49.376;11.080;2024-01-27T12:32:17;10.10;99.90
14331;DHT22;7249;49.376;11.080;2024-01-27T12:34:43;10.20;99.90
14331;DHT22;7249;49.376;11.080;2024-01-27T12:37:11;10.30;99.90
14331;DHT22;7249;49.376;11.080;2024-01-27T12:39:42;10.30;99.90
14331;DHT22;7249;49.376;11.080;2024-01-27T12:42:08;10.50;99.90
14331;DHT22;7249;49.376;11.080;2024-01-27T12:44:34;10.70;99.90
14331;DHT22;7249;49.376;11.080;2024-01-27T12:46:59;10.60;99.90
14331;DHT22;7249;49.376;11.080;2024-01-27T12:49:26;10.60;99.90
14331;DHT22;7249;49.376;11.080;2024-01-27T12:51:52;10.60;99.90
14331;DHT22;7249;49.376;11.080;2024-01-27T12:54:17;10.60;99.90
14331;DHT22;7249;49.376;11.080;2024-01-27T12:56:43;10.50;99.90
14331;DHT22;7249;49.376;11.080;2024-01-27T12:59:09;10.50;99.90
14331;DHT22;7249;49.376;11.080;2024-01-27T13:01:35;10.30;99.90
14331;DHT22;7249;49.376;11.080;2024-01-27T13:04:00;10.20;99.90
14331;DHT22;7249;49.376;11.080;2024-01-27T13:06:26;10.20;99.90
14331;DHT22;7249;49.376;11.080;2024-01-27T13:08:52;10.20;99.90
14331;DHT22;7249;49.376;11.080;2024-01-27T13:11:19;10.10;99.90
14331;DHT22;7249;49.376;11.080;2024-01-27T13:13:45;10.20;99.90
14331;DHT22;7249;49.376;11.080;2024-01-27T13:16:10;10.30;99.90
14331;DHT22;7249;49.376;11.080;2024-01-27T13:18:37;10.30;99.90
14331;DHT22;7249;49.376;11.080;2024-01-27T13:21:03;10.30;99.90
14331;DHT22;7249;49.376;11.080;2024-01-27T13:23:31;10.20;99.90
14331;DHT22;7249;49.376;11.080;2024-01-27T13:25:57;10.30;99.90
14331;DHT22;7249;49.376;11.080;2024-01-27T13:28:23;10.30;99.90
14331;DHT22;7249;49.376;11.080;2024-01-27T13:30:49;10.50;99.90
14331;DHT22;7249;49.376;11.080;2024-01-27T13:33:18;10.50;99.90
14331;DHT22;7249;49.376;11.080;2024-01-27T13:35:44;10.60;99.90
14331;DHT22;7249;49.376;11.080;2024-01-27T13:38:13;10.90;99.90
14331;DHT22;7249;49.376;11.080;2024-01-27T13:40:39;10.80;99.90
14331;DHT22;7249;49.376;11.080;2024-01-27T13:43:05;10.90;99.90
14331;DHT22;7249;49.376;11.080;2024-01-27T13:45:31;10.90;99.90
14331;DHT22;7249;49.376;11.080;2024-01-27T13:47:57;11.00;99.90
14331;DHT22;7249;49.376;11.080;2024-01-27T13:50:23;11.00;99.90
14331;DHT22;7249;49.376;11.080;2024-01-27T13:52:51;11.10;99.90
14331;DHT22;7249;49.376;11.080;2024-01-27T13:55:17;11.40;99.90
14331;DHT22;7249;49.376;11.080;2024-01-27T13:57:43;11.50;99.90
14331;DHT22;7249;49.376;11.080;2024-01-27T14:00:10;11.70;99.90
14331;DHT22;7249;49.376;11.080;2024-01-27T14:02:36;12.10;99.90
14331;DHT22;7249;49.376;11.080;2024-01-27T14:05:03;12.20;99.90
14331;DHT22;7249;49.376;11.080;2024-01-27T14:07:29;12.10;99.90
14331;DHT22;7249;49.376;11.080;2024-01-27T14:09:55;12.00;99.90
14331;DHT22;7249;49.376;11.080;2024-01-27T14:12:20;11.80;99.90
14331;DHT22;7249;49.376;11.080;2024-01-27T14:14:49;11.20;99.90
14331;DHT22;7249;49.376;11.080;2024-01-27T14:17:15;10.70;99.90
14331;DHT22;7249;49.376;11.080;2024-01-27T14:19:40;10.20;99.90
14331;DHT22;7249;49.376;11.080;2024-01-27T14:22:06;9.70;99.90
14331;DHT22;7249;49.376;11.080;2024-01-27T14:24:32;9.30;99.90
14331;DHT22;7249;49.376;11.080;2024-01-27T14:27:01;8.90;99.90
14331;DHT22;7249;49.376;11.080;2024-01-27T14:29:26;8.60;99.90
14331;DHT22;7249;49.376;11.080;2024-01-27T14:31:52;8.30;99.90
14331;DHT22;7249;49.376;11.080;2024-01-27T14:34:18;8.00;99.90
14331;DHT22;7249;49.376;11.080;2024-01-27T14:36:44;7.80;99.90
14331;DHT22;7249;49.376;11.080;2024-01-27T14:39:10;7.60;99.90
14331;DHT22;7249;49.376;11.080;2024-01-27T14:41:39;7.40;99.90
14331;DHT22;7249;49.376;11.080;2024-01-27T14:44:05;7.30;99.90
14331;DHT22;7249;49.376;11.080;2024-01-27T14:46:31;7.10;99.90
14331;DHT22;7249;49.376;11.080;2024-01-27T14:48:56;7.00;99.90
14331;DHT22;7249;49.376;11.080;2024-01-27T14:51:22;7.00;99.90
14331;DHT22;7249;49.376;11.080;2024-01-27T14:53:48;6.90;99.90
14331;DHT22;7249;49.376;11.080;2024-01-27T14:56:14;6.70;99.90
14331;DHT22;7249;49.376;11.080;2024-01-27T14:58:41;6.60;99.90
14331;DHT22;7249;49.376;11.080;2024-01-27T15:01:06;6.60;99.90
14331;DHT22;7249;49.376;11.080;2024-01-27T15:03:35;6.50;99.90
14331;DHT22;7249;49.376;11.080;2024-01-27T15:06:02;6.40;99.90
14331;DHT22;7249;49.376;11.080;2024-01-27T15:08:28;6.30;99.90
14331;DHT22;7249;49.376;11.080;2024-01-27T15:10:54;6.20;99.90
14331;DHT22;7249;49.376;11.080;2024-01-27T15:13:19;6.10;99.90
14331;DHT22;7249;49.376;11.080;2024-01-27T15:15:48;6.00;99.90
14331;DHT22;7249;49.376;11.080;2024-01-27T15:18:18;5.80;99.90
14331;DHT22;7249;49.376;11.080;2024-01-27T15:20:46;5.80;99.90
14331;DHT22;7249;49.376;11.080;2024-01-27T15:23:11;5.70;99.90
14331;DHT22;7249;49.376;11.080;2024-01-27T15:25:38;5.60;99.90
14331;DHT22;7249;49.376;11.080;2024-01-27T15:28:04;5.60;99.90
14331;DHT22;7249;49.376;11.080;2024-01-27T15:30:30;5.50;99.90
14331;DHT22;7249;49.376;11.080;2024-01-27T15:32:55;5.50;99.90
14331;DHT22;7249;49.376;11.080;2024-01-27T15:35:21;5.50;99.90
14331;DHT22;7249;49.376;11.080;2024-01-27T15:37:47;5.50;99.90